Jena Marie C. — WDD4969 — position and weather

sailwx.info

Track history (hours):
 
Tides and Currents Weather Stations Pressure Air Temp Water Temp Dewpoint Dewpoint Depression Visibility Wind Speed Wind Dir Waves Ship Positions

Jena Marie C.

Owner: Scott C. Marine Towing, LLC, Marrero, LA. More information available from US FCC via Universal Licensing System and Coast Guard Vessel Documentation Center.

Last reported at 2015-Apr-21 09:12 UTC. Time now 2015-Apr-22 01:40 UTC.
Position N 29°56' W 090°08'.

Length 19 m; draft 2.5 m.

Type: Towing. MMSI: 367151880.

Date/timePositionNaut miles runAvg speedWind from/ knotsBaromVisibWave heightAir tempDewpointWater temp
2015-Apr-21 09:12N 29°56' W 090°08'0 0.1
2015-Apr-21 06:04N 29°57' W 090°08'3 4.2
2015-Apr-21 05:28N 29°55' W 090°07'4 4.3
2015-Apr-21 04:33N 29°57' W 090°03'1 1.0
2015-Apr-21 03:33N 29°58' W 090°02'0 0.0
2015-Apr-21 02:33N 29°58' W 090°02'0 0.0
2015-Apr-21 01:33N 29°58' W 090°02'3 3.2
2015-Apr-21 00:33N 29°55' W 090°04'6 5.7
2015-Apr-20 23:33N 29°56' W 090°11'2 1.0
2015-Apr-20 21:26N 29°57' W 090°09'2 2.4
2015-Apr-20 20:33N 29°55' W 090°08'3 2.8
2015-Apr-20 19:26N 29°55' W 090°05'3 3.0
2015-Apr-20 18:32N 29°57' W 090°03'1 0.7
2015-Apr-20 17:33N 29°58' W 090°02'0 0.3
2015-Apr-20 16:20N 29°57' W 090°02'17 2.5
2015-Apr-20 09:33N 29°56' W 090°21'13 1.2
2015-Apr-19 23:03N 29°55' W 090°06'1 1.7
2015-Apr-19 22:29N 29°55' W 090°05'0 0.0
2015-Apr-19 21:13N 29°55' W 090°05'2 3.2
2015-Apr-19 20:30N 29°55' W 090°08'3 0.5
2015-Apr-19 14:22N 29°56' W 090°11'8 0.6
2015-Apr-19 02:06N 29°57' W 090°02'6 1.7
2015-Apr-18 22:32N 29°55' W 090°08'3 2.8
2015-Apr-18 21:33N 29°55' W 090°05'1 0.7
2015-Apr-18 20:25N 29°55' W 090°06'4 2.0
2015-Apr-18 18:21N 29°57' W 090°10'3 3.4
2015-Apr-18 17:27N 29°55' W 090°07'3 3.3
2015-Apr-18 16:33N 29°55' W 090°04'3 3.0
2015-Apr-18 15:32N 29°57' W 090°01'0 0.0
2015-Apr-18 14:33N 29°57' W 090°01'3 3.2
2015-Apr-18 13:33N 29°55' W 090°04'2 2.3
2015-Apr-18 12:32N 29°54' W 090°07'1 0.0
2015-Apr-17 15:26N 29°55' W 090°07'1 1.1
2015-Apr-17 14:31N 29°55' W 090°06'4 1.5
2015-Apr-17 11:31N 29°56' W 090°11'0 0.0
2015-Apr-17 10:22N 29°56' W 090°11'0 0.0
2015-Apr-17 09:24N 29°56' W 090°11'0 0.0
2015-Apr-17 08:20N 29°56' W 090°11'2 2.6
2015-Apr-17 07:25N 29°56' W 090°08'1 1.2
2015-Apr-17 06:22N 29°57' W 090°09'1 0.3
2015-Apr-17 04:03N 29°57' W 090°10'2 2.3
2015-Apr-17 03:23N 29°56' W 090°08'2 2.8
2015-Apr-17 02:33N 29°55' W 090°07'1 1.1
2015-Apr-17 01:28N 29°55' W 090°05'0 0.2
2015-Apr-17 00:32N 29°55' W 090°05'0 0.0
2015-Apr-16 23:17N 29°55' W 090°05'0 0.0
2015-Apr-16 22:33N 29°55' W 090°05'5 0.3
2015-Apr-16 06:06N 29°56' W 090°11'2 0.4
2015-Apr-16 00:32N 29°56' W 090°08'4 2.7
2015-Apr-15 23:12N 29°55' W 090°04'4 0.2
2015-Apr-15 05:13N 29°57' W 090°08'1 1.9
2015-Apr-15 04:27N 29°55' W 090°08'1 1.3
2015-Apr-15 03:32N 29°55' W 090°07'0 0.0
2015-Apr-15 02:18N 29°55' W 090°07'1 0.0
2015-Apr-14 02:25N 29°56' W 090°08'1 1.3
2015-Apr-14 01:28N 29°55' W 090°07'0 0.0
2015-Apr-14 00:32N 29°55' W 090°07'3 2.7
2015-Apr-13 23:23N 29°57' W 090°10'1 0.1
2015-Apr-13 11:30N 29°57' W 090°09'1 0.1
2015-Apr-12 14:24N 29°56' W 090°08'1 0.1
2015-Apr-12 05:18N 29°56' W 090°08'0 0.1
2015-Apr-12 00:27N 29°57' W 090°08'3 3.3
2015-Apr-11 23:29N 29°55' W 090°05'2 1.7
2015-Apr-11 22:33N 29°55' W 090°04'2 1.8
2015-Apr-11 21:33N 29°57' W 090°03'3 2.3
2015-Apr-11 20:21N 29°56' W 090°00'3 3.1
2015-Apr-11 19:27N 29°58' W 090°03'  
Track history (hours):
 
Tides and Currents Weather Stations Pressure Air Temp Water Temp Dewpoint Dewpoint Depression Visibility Wind Speed Wind Dir Waves Ship Positions

Jena Marie C.

Owner: Scott C. Marine Towing, LLC, Marrero, LA. More information available from US FCC via Universal Licensing System and Coast Guard Vessel Documentation Center.

Last reported at 2015-Apr-21 09:12 UTC. Time now 2015-Apr-22 01:40 UTC.
Position N 29°56' W 090°08'.

Length 19 m; draft 2.5 m.

Type: Towing. MMSI: 367151880.

Date/timePositionNaut miles runAvg speedWind from/ knotsBaromVisibWave heightAir tempDewpointWater temp
2015-Apr-21 09:12N 29°56' W 090°08'0 0.1
2015-Apr-21 06:04N 29°57' W 090°08'3 4.2
2015-Apr-21 05:28N 29°55' W 090°07'4 4.3
2015-Apr-21 04:33N 29°57' W 090°03'1 1.0
2015-Apr-21 03:33N 29°58' W 090°02'0 0.0
2015-Apr-21 02:33N 29°58' W 090°02'0 0.0
2015-Apr-21 01:33N 29°58' W 090°02'3 3.2
2015-Apr-21 00:33N 29°55' W 090°04'6 5.7
2015-Apr-20 23:33N 29°56' W 090°11'2 1.0
2015-Apr-20 21:26N 29°57' W 090°09'2 2.4
2015-Apr-20 20:33N 29°55' W 090°08'3 2.8
2015-Apr-20 19:26N 29°55' W 090°05'3 3.0
2015-Apr-20 18:32N 29°57' W 090°03'1 0.7
2015-Apr-20 17:33N 29°58' W 090°02'0 0.3
2015-Apr-20 16:20N 29°57' W 090°02'17 2.5
2015-Apr-20 09:33N 29°56' W 090°21'13 1.2
2015-Apr-19 23:03N 29°55' W 090°06'1 1.7
2015-Apr-19 22:29N 29°55' W 090°05'0 0.0
2015-Apr-19 21:13N 29°55' W 090°05'2 3.2
2015-Apr-19 20:30N 29°55' W 090°08'3 0.5
2015-Apr-19 14:22N 29°56' W 090°11'8 0.6
2015-Apr-19 02:06N 29°57' W 090°02'6 1.7
2015-Apr-18 22:32N 29°55' W 090°08'3 2.8
2015-Apr-18 21:33N 29°55' W 090°05'1 0.7
2015-Apr-18 20:25N 29°55' W 090°06'4 2.0
2015-Apr-18 18:21N 29°57' W 090°10'3 3.4
2015-Apr-18 17:27N 29°55' W 090°07'3 3.3
2015-Apr-18 16:33N 29°55' W 090°04'3 3.0
2015-Apr-18 15:32N 29°57' W 090°01'0 0.0
2015-Apr-18 14:33N 29°57' W 090°01'3 3.2
2015-Apr-18 13:33N 29°55' W 090°04'2 2.3
2015-Apr-18 12:32N 29°54' W 090°07'1 0.0
2015-Apr-17 15:26N 29°55' W 090°07'1 1.1
2015-Apr-17 14:31N 29°55' W 090°06'4 1.5
2015-Apr-17 11:31N 29°56' W 090°11'0 0.0
2015-Apr-17 10:22N 29°56' W 090°11'0 0.0
2015-Apr-17 09:24N 29°56' W 090°11'0 0.0
2015-Apr-17 08:20N 29°56' W 090°11'2 2.6
2015-Apr-17 07:25N 29°56' W 090°08'1 1.2
2015-Apr-17 06:22N 29°57' W 090°09'1 0.3
2015-Apr-17 04:03N 29°57' W 090°10'2 2.3
2015-Apr-17 03:23N 29°56' W 090°08'2 2.8
2015-Apr-17 02:33N 29°55' W 090°07'1 1.1
2015-Apr-17 01:28N 29°55' W 090°05'0 0.2
2015-Apr-17 00:32N 29°55' W 090°05'0 0.0
2015-Apr-16 23:17N 29°55' W 090°05'0 0.0
2015-Apr-16 22:33N 29°55' W 090°05'5 0.3
2015-Apr-16 06:06N 29°56' W 090°11'2 0.4
2015-Apr-16 00:32N 29°56' W 090°08'4 2.7
2015-Apr-15 23:12N 29°55' W 090°04'4 0.2
2015-Apr-15 05:13N 29°57' W 090°08'1 1.9
2015-Apr-15 04:27N 29°55' W 090°08'1 1.3
2015-Apr-15 03:32N 29°55' W 090°07'0 0.0
2015-Apr-15 02:18N 29°55' W 090°07'1 0.0
2015-Apr-14 02:25N 29°56' W 090°08'1 1.3
2015-Apr-14 01:28N 29°55' W 090°07'0 0.0
2015-Apr-14 00:32N 29°55' W 090°07'3 2.7
2015-Apr-13 23:23N 29°57' W 090°10'1 0.1
2015-Apr-13 11:30N 29°57' W 090°09'1 0.1
2015-Apr-12 14:24N 29°56' W 090°08'1 0.1
2015-Apr-12 05:18N 29°56' W 090°08'0 0.1
2015-Apr-12 00:27N 29°57' W 090°08'3 3.3
2015-Apr-11 23:29N 29°55' W 090°05'2 1.7
2015-Apr-11 22:33N 29°55' W 090°04'2 1.8
2015-Apr-11 21:33N 29°57' W 090°03'3 2.3
2015-Apr-11 20:21N 29°56' W 090°00'3 3.1
2015-Apr-11 19:27N 29°58' W 090°03'  

Dump ship's entire track history